sensor_id;sensor_type;location;lat;lon;timestamp;P1;durP1;ratioP1;P2;durP2;ratioP2
68315;SDS011;55508;54.368;18.406;2023-02-18T00:00:26;17.98;;;1.90;;
68315;SDS011;55508;54.368;18.406;2023-02-18T00:02:53;17.23;;;3.50;;
68315;SDS011;55508;54.368;18.406;2023-02-18T00:05:21;12.38;;;2.45;;
68315;SDS011;55508;54.368;18.406;2023-02-18T00:07:48;14.95;;;2.78;;
68315;SDS011;55508;54.368;18.406;2023-02-18T00:10:15;11.93;;;2.28;;
68315;SDS011;55508;54.368;18.406;2023-02-18T00:12:42;14.02;;;2.90;;
68315;SDS011;55508;54.368;18.406;2023-02-18T00:15:09;17.63;;;2.83;;
68315;SDS011;55508;54.368;18.406;2023-02-18T00:17:36;11.32;;;1.90;;
68315;SDS011;55508;54.368;18.406;2023-02-18T00:20:04;10.45;;;2.28;;
68315;SDS011;55508;54.368;18.406;2023-02-18T00:22:32;21.83;;;4.00;;
68315;SDS011;55508;54.368;18.406;2023-02-18T00:24:59;8.02;;;1.90;;
68315;SDS011;55508;54.368;18.406;2023-02-18T00:27:26;5.68;;;1.88;;
68315;SDS011;55508;54.368;18.406;2023-02-18T00:29:52;7.18;;;2.22;;
68315;SDS011;55508;54.368;18.406;2023-02-18T00:32:19;8.68;;;1.35;;
68315;SDS011;55508;54.368;18.406;2023-02-18T00:34:46;10.20;;;2.40;;
68315;SDS011;55508;54.368;18.406;2023-02-18T00:37:13;12.00;;;2.47;;
68315;SDS011;55508;54.368;18.406;2023-02-18T00:39:40;9.40;;;2.17;;
68315;SDS011;55508;54.368;18.406;2023-02-18T00:42:07;9.80;;;2.50;;
68315;SDS011;55508;54.368;18.406;2023-02-18T00:44:34;12.95;;;2.28;;
68315;SDS011;55508;54.368;18.406;2023-02-18T00:47:01;10.60;;;2.40;;
68315;SDS011;55508;54.368;18.406;2023-02-18T00:49:28;10.68;;;2.65;;
68315;SDS011;55508;54.368;18.406;2023-02-18T00:51:55;8.68;;;2.83;;
68315;SDS011;55508;54.368;18.406;2023-02-18T00:54:21;10.65;;;2.00;;
68315;SDS011;55508;54.368;18.406;2023-02-18T00:56:49;15.65;;;2.80;;
68315;SDS011;55508;54.368;18.406;2023-02-18T00:59:16;11.40;;;2.50;;
68315;SDS011;55508;54.368;18.406;2023-02-18T01:01:43;12.68;;;2.65;;
68315;SDS011;55508;54.368;18.406;2023-02-18T01:04:10;17.00;;;3.28;;
68315;SDS011;55508;54.368;18.406;2023-02-18T01:06:37;19.80;;;3.20;;
68315;SDS011;55508;54.368;18.406;2023-02-18T01:09:04;17.10;;;3.33;;
68315;SDS011;55508;54.368;18.406;2023-02-18T01:11:31;12.00;;;2.72;;
68315;SDS011;55508;54.368;18.406;2023-02-18T01:13:58;8.45;;;2.20;;
68315;SDS011;55508;54.368;18.406;2023-02-18T01:16:28;15.85;;;3.30;;
68315;SDS011;55508;54.368;18.406;2023-02-18T01:18:55;18.42;;;3.55;;
68315;SDS011;55508;54.368;18.406;2023-02-18T01:21:21;16.48;;;3.53;;
68315;SDS011;55508;54.368;18.406;2023-02-18T01:23:50;17.58;;;2.28;;
68315;SDS011;55508;54.368;18.406;2023-02-18T01:26:17;16.23;;;2.35;;
68315;SDS011;55508;54.368;18.406;2023-02-18T01:28:44;16.17;;;2.85;;
68315;SDS011;55508;54.368;18.406;2023-02-18T01:31:12;11.82;;;2.55;;
68315;SDS011;55508;54.368;18.406;2023-02-18T01:33:40;10.43;;;2.90;;
68315;SDS011;55508;54.368;18.406;2023-02-18T01:36:07;7.60;;;2.03;;
68315;SDS011;55508;54.368;18.406;2023-02-18T01:38:35;21.73;;;2.90;;
68315;SDS011;55508;54.368;18.406;2023-02-18T01:41:02;9.30;;;2.42;;
68315;SDS011;55508;54.368;18.406;2023-02-18T01:43:30;18.83;;;4.00;;
68315;SDS011;55508;54.368;18.406;2023-02-18T01:48:50;15.32;;;2.95;;
68315;SDS011;55508;54.368;18.406;2023-02-18T01:51:25;13.48;;;2.72;;
68315;SDS011;55508;54.368;18.406;2023-02-18T01:56:46;9.65;;;2.40;;
68315;SDS011;55508;54.368;18.406;2023-02-18T01:59:25;11.50;;;2.03;;
68315;SDS011;55508;54.368;18.406;2023-02-18T02:01:55;10.07;;;2.78;;
68315;SDS011;55508;54.368;18.406;2023-02-18T02:04:22;12.00;;;2.67;;
68315;SDS011;55508;54.368;18.406;2023-02-18T02:06:49;18.73;;;3.38;;
68315;SDS011;55508;54.368;18.406;2023-02-18T02:09:17;19.42;;;3.47;;
68315;SDS011;55508;54.368;18.406;2023-02-18T02:11:53;16.52;;;2.85;;
68315;SDS011;55508;54.368;18.406;2023-02-18T02:24:03;10.40;;;1.88;;
68315;SDS011;55508;54.368;18.406;2023-02-18T02:27:03;13.90;;;2.78;;
68315;SDS011;55508;54.368;18.406;2023-02-18T02:32:58;25.60;;;4.07;;
68315;SDS011;55508;54.368;18.406;2023-02-18T02:35:40;14.07;;;2.35;;
68315;SDS011;55508;54.368;18.406;2023-02-18T02:38:23;16.88;;;2.65;;
68315;SDS011;55508;54.368;18.406;2023-02-18T02:46:58;8.00;;;2.35;;
68315;SDS011;55508;54.368;18.406;2023-02-18T02:52:27;13.25;;;2.70;;
68315;SDS011;55508;54.368;18.406;2023-02-18T02:54:58;14.15;;;2.30;;
68315;SDS011;55508;54.368;18.406;2023-02-18T03:00:21;15.70;;;2.92;;
68315;SDS011;55508;54.368;18.406;2023-02-18T03:06:00;7.53;;;2.78;;
68315;SDS011;55508;54.368;18.406;2023-02-18T03:09:09;15.95;;;2.88;;
68315;SDS011;55508;54.368;18.406;2023-02-18T03:11:40;10.48;;;1.85;;
68315;SDS011;55508;54.368;18.406;2023-02-18T03:17:11;10.20;;;2.20;;
68315;SDS011;55508;54.368;18.406;2023-02-18T03:19:48;4.45;;;1.98;;
68315;SDS011;55508;54.368;18.406;2023-02-18T03:22:22;7.85;;;2.00;;
68315;SDS011;55508;54.368;18.406;2023-02-18T03:24:53;13.18;;;2.42;;
68315;SDS011;55508;54.368;18.406;2023-02-18T03:27:32;17.33;;;2.45;;
68315;SDS011;55508;54.368;18.406;2023-02-18T03:32:34;9.82;;;1.65;;
68315;SDS011;55508;54.368;18.406;2023-02-18T03:35:04;13.30;;;1.85;;
68315;SDS011;55508;54.368;18.406;2023-02-18T03:37:34;12.68;;;2.72;;
68315;SDS011;55508;54.368;18.406;2023-02-18T03:40:05;8.80;;;2.22;;
68315;SDS011;55508;54.368;18.406;2023-02-18T03:42:33;12.90;;;2.80;;
68315;SDS011;55508;54.368;18.406;2023-02-18T03:45:00;12.07;;;3.08;;
68315;SDS011;55508;54.368;18.406;2023-02-18T03:47:27;6.78;;;1.65;;
68315;SDS011;55508;54.368;18.406;2023-02-18T03:49:54;12.77;;;2.55;;
68315;SDS011;55508;54.368;18.406;2023-02-18T03:52:21;6.70;;;1.90;;
68315;SDS011;55508;54.368;18.406;2023-02-18T03:54:48;12.38;;;1.65;;
68315;SDS011;55508;54.368;18.406;2023-02-18T03:57:16;15.82;;;1.77;;
68315;SDS011;55508;54.368;18.406;2023-02-18T03:59:43;7.75;;;1.95;;
68315;SDS011;55508;54.368;18.406;2023-02-18T04:02:10;6.72;;;1.70;;
68315;SDS011;55508;54.368;18.406;2023-02-18T04:04:37;8.32;;;2.03;;
68315;SDS011;55508;54.368;18.406;2023-02-18T04:07:04;9.43;;;2.00;;
68315;SDS011;55508;54.368;18.406;2023-02-18T04:09:31;6.43;;;1.52;;
68315;SDS011;55508;54.368;18.406;2023-02-18T04:11:57;9.13;;;1.60;;
68315;SDS011;55508;54.368;18.406;2023-02-18T04:14:24;7.97;;;2.05;;
68315;SDS011;55508;54.368;18.406;2023-02-18T04:16:51;5.80;;;1.50;;
68315;SDS011;55508;54.368;18.406;2023-02-18T04:19:18;12.85;;;2.78;;
68315;SDS011;55508;54.368;18.406;2023-02-18T04:21:45;11.88;;;2.00;;
68315;SDS011;55508;54.368;18.406;2023-02-18T04:24:12;7.78;;;2.08;;
68315;SDS011;55508;54.368;18.406;2023-02-18T04:26:39;7.82;;;1.92;;
68315;SDS011;55508;54.368;18.406;2023-02-18T04:29:06;11.50;;;2.65;;
68315;SDS011;55508;54.368;18.406;2023-02-18T04:31:32;11.82;;;2.40;;
68315;SDS011;55508;54.368;18.406;2023-02-18T04:34:00;12.48;;;2.65;;
68315;SDS011;55508;54.368;18.406;2023-02-18T04:36:27;8.68;;;2.20;;
68315;SDS011;55508;54.368;18.406;2023-02-18T04:38:53;12.60;;;2.33;;
68315;SDS011;55508;54.368;18.406;2023-02-18T04:41:20;12.23;;;2.20;;
68315;SDS011;55508;54.368;18.406;2023-02-18T04:43:47;6.43;;;1.90;;
68315;SDS011;55508;54.368;18.406;2023-02-18T04:46:14;10.73;;;2.78;;
68315;SDS011;55508;54.368;18.406;2023-02-18T04:48:41;10.57;;;2.90;;
68315;SDS011;55508;54.368;18.406;2023-02-18T04:51:08;4.82;;;1.73;;
68315;SDS011;55508;54.368;18.406;2023-02-18T04:53:35;13.00;;;2.83;;
68315;SDS011;55508;54.368;18.406;2023-02-18T04:56:02;8.02;;;1.98;;
68315;SDS011;55508;54.368;18.406;2023-02-18T04:58:29;17.92;;;2.63;;
68315;SDS011;55508;54.368;18.406;2023-02-18T05:00:59;12.98;;;1.95;;
68315;SDS011;55508;54.368;18.406;2023-02-18T05:03:27;12.85;;;2.70;;
68315;SDS011;55508;54.368;18.406;2023-02-18T05:05:54;11.65;;;2.10;;
68315;SDS011;55508;54.368;18.406;2023-02-18T05:08:21;16.95;;;3.50;;
68315;SDS011;55508;54.368;18.406;2023-02-18T05:10:48;14.05;;;2.33;;
68315;SDS011;55508;54.368;18.406;2023-02-18T05:13:15;13.27;;;2.55;;
68315;SDS011;55508;54.368;18.406;2023-02-18T05:15:42;9.68;;;2.22;;
68315;SDS011;55508;54.368;18.406;2023-02-18T05:18:09;7.60;;;2.30;;
68315;SDS011;55508;54.368;18.406;2023-02-18T05:20:36;2.63;;;1.50;;
68315;SDS011;55508;54.368;18.406;2023-02-18T05:23:03;9.43;;;2.20;;
68315;SDS011;55508;54.368;18.406;2023-02-18T05:25:30;12.43;;;2.33;;
68315;SDS011;55508;54.368;18.406;2023-02-18T05:27:57;7.03;;;1.75;;
68315;SDS011;55508;54.368;18.406;2023-02-18T05:30:24;11.15;;;1.80;;
68315;SDS011;55508;54.368;18.406;2023-02-18T05:32:51;10.00;;;2.08;;
68315;SDS011;55508;54.368;18.406;2023-02-18T05:35:18;12.27;;;3.22;;
68315;SDS011;55508;54.368;18.406;2023-02-18T05:37:44;8.65;;;2.83;;
68315;SDS011;55508;54.368;18.406;2023-02-18T05:40:11;6.18;;;1.67;;
68315;SDS011;55508;54.368;18.406;2023-02-18T05:42:38;10.68;;;1.80;;
68315;SDS011;55508;54.368;18.406;2023-02-18T05:45:05;15.68;;;2.80;;
68315;SDS011;55508;54.368;18.406;2023-02-18T05:47:32;8.93;;;2.17;;
68315;SDS011;55508;54.368;18.406;2023-02-18T05:49:59;12.55;;;2.70;;
68315;SDS011;55508;54.368;18.406;2023-02-18T05:52:26;9.90;;;3.00;;
68315;SDS011;55508;54.368;18.406;2023-02-18T05:54:53;12.82;;;2.42;;
68315;SDS011;55508;54.368;18.406;2023-02-18T05:57:20;15.82;;;2.58;;
68315;SDS011;55508;54.368;18.406;2023-02-18T05:59:47;12.27;;;3.20;;
68315;SDS011;55508;54.368;18.406;2023-02-18T06:02:14;13.05;;;2.50;;
68315;SDS011;55508;54.368;18.406;2023-02-18T06:04:41;18.15;;;2.92;;
68315;SDS011;55508;54.368;18.406;2023-02-18T06:07:08;11.07;;;2.45;;
68315;SDS011;55508;54.368;18.406;2023-02-18T06:09:35;12.02;;;2.97;;
68315;SDS011;55508;54.368;18.406;2023-02-18T06:12:01;12.25;;;2.55;;
68315;SDS011;55508;54.368;18.406;2023-02-18T06:14:29;8.00;;;2.03;;
68315;SDS011;55508;54.368;18.406;2023-02-18T06:16:55;9.57;;;3.20;;
68315;SDS011;55508;54.368;18.406;2023-02-18T06:19:22;8.38;;;2.03;;
68315;SDS011;55508;54.368;18.406;2023-02-18T06:21:49;7.38;;;1.55;;
68315;SDS011;55508;54.368;18.406;2023-02-18T06:24:16;9.57;;;2.35;;
68315;SDS011;55508;54.368;18.406;2023-02-18T06:26:43;15.20;;;2.80;;
68315;SDS011;55508;54.368;18.406;2023-02-18T06:29:10;13.30;;;2.70;;
68315;SDS011;55508;54.368;18.406;2023-02-18T06:31:37;8.05;;;1.98;;
68315;SDS011;55508;54.368;18.406;2023-02-18T06:34:04;12.80;;;2.40;;
68315;SDS011;55508;54.368;18.406;2023-02-18T06:36:31;14.90;;;2.63;;
68315;SDS011;55508;54.368;18.406;2023-02-18T06:38:57;8.88;;;1.98;;
68315;SDS011;55508;54.368;18.406;2023-02-18T06:41:24;9.50;;;2.38;;
68315;SDS011;55508;54.368;18.406;2023-02-18T06:43:51;9.13;;;2.03;;
68315;SDS011;55508;54.368;18.406;2023-02-18T06:46:18;17.80;;;2.30;;
68315;SDS011;55508;54.368;18.406;2023-02-18T06:48:45;12.55;;;2.75;;
68315;SDS011;55508;54.368;18.406;2023-02-18T06:51:12;14.88;;;2.72;;
68315;SDS011;55508;54.368;18.406;2023-02-18T06:53:39;8.30;;;2.40;;
68315;SDS011;55508;54.368;18.406;2023-02-18T06:56:06;9.00;;;2.85;;
68315;SDS011;55508;54.368;18.406;2023-02-18T06:58:34;11.10;;;2.58;;
68315;SDS011;55508;54.368;18.406;2023-02-18T07:01:01;20.85;;;4.25;;
68315;SDS011;55508;54.368;18.406;2023-02-18T07:03:28;10.93;;;2.35;;
68315;SDS011;55508;54.368;18.406;2023-02-18T07:05:55;10.82;;;2.25;;
68315;SDS011;55508;54.368;18.406;2023-02-18T07:08:22;13.70;;;2.10;;
68315;SDS011;55508;54.368;18.406;2023-02-18T07:10:49;9.25;;;2.08;;
68315;SDS011;55508;54.368;18.406;2023-02-18T07:13:16;9.93;;;2.03;;
68315;SDS011;55508;54.368;18.406;2023-02-18T07:15:43;11.02;;;3.05;;
68315;SDS011;55508;54.368;18.406;2023-02-18T07:18:10;11.40;;;2.42;;
68315;SDS011;55508;54.368;18.406;2023-02-18T07:20:38;8.85;;;2.88;;
68315;SDS011;55508;54.368;18.406;2023-02-18T07:23:09;13.77;;;2.50;;
68315;SDS011;55508;54.368;18.406;2023-02-18T07:25:36;18.85;;;3.10;;
68315;SDS011;55508;54.368;18.406;2023-02-18T07:28:03;11.13;;;2.35;;
68315;SDS011;55508;54.368;18.406;2023-02-18T07:30:30;10.15;;;2.35;;
68315;SDS011;55508;54.368;18.406;2023-02-18T07:32:57;9.13;;;2.22;;
68315;SDS011;55508;54.368;18.406;2023-02-18T07:35:24;9.13;;;2.17;;
68315;SDS011;55508;54.368;18.406;2023-02-18T07:37:51;12.05;;;1.95;;
68315;SDS011;55508;54.368;18.406;2023-02-18T07:40:20;5.35;;;1.55;;
68315;SDS011;55508;54.368;18.406;2023-02-18T07:42:47;10.77;;;2.50;;
68315;SDS011;55508;54.368;18.406;2023-02-18T07:45:14;14.93;;;2.45;;
68315;SDS011;55508;54.368;18.406;2023-02-18T07:47:41;13.52;;;2.30;;
68315;SDS011;55508;54.368;18.406;2023-02-18T07:50:11;10.82;;;2.03;;
68315;SDS011;55508;54.368;18.406;2023-02-18T07:52:38;5.80;;;1.55;;
68315;SDS011;55508;54.368;18.406;2023-02-18T07:55:04;14.02;;;2.22;;
68315;SDS011;55508;54.368;18.406;2023-02-18T07:57:32;7.28;;;1.80;;
68315;SDS011;55508;54.368;18.406;2023-02-18T07:59:59;9.25;;;1.80;;
68315;SDS011;55508;54.368;18.406;2023-02-18T08:02:25;9.90;;;2.08;;
68315;SDS011;55508;54.368;18.406;2023-02-18T08:04:52;13.70;;;1.73;;
68315;SDS011;55508;54.368;18.406;2023-02-18T08:07:19;13.98;;;2.78;;
68315;SDS011;55508;54.368;18.406;2023-02-18T08:09:47;7.43;;;2.22;;
68315;SDS011;55508;54.368;18.406;2023-02-18T08:12:16;9.85;;;2.60;;
68315;SDS011;55508;54.368;18.406;2023-02-18T08:14:43;9.90;;;2.13;;
68315;SDS011;55508;54.368;18.406;2023-02-18T08:17:10;4.03;;;1.40;;
68315;SDS011;55508;54.368;18.406;2023-02-18T08:19:37;8.45;;;2.33;;
68315;SDS011;55508;54.368;18.406;2023-02-18T08:22:03;12.57;;;4.07;;
68315;SDS011;55508;54.368;18.406;2023-02-18T08:24:30;12.73;;;3.05;;
68315;SDS011;55508;54.368;18.406;2023-02-18T08:26:57;15.82;;;2.60;;
68315;SDS011;55508;54.368;18.406;2023-02-18T08:29:27;7.90;;;2.13;;
68315;SDS011;55508;54.368;18.406;2023-02-18T08:31:54;12.27;;;2.97;;
68315;SDS011;55508;54.368;18.406;2023-02-18T08:34:24;12.95;;;2.35;;
68315;SDS011;55508;54.368;18.406;2023-02-18T08:36:51;7.40;;;2.63;;
68315;SDS011;55508;54.368;18.406;2023-02-18T08:39:18;12.52;;;2.83;;
68315;SDS011;55508;54.368;18.406;2023-02-18T08:41:45;7.22;;;1.85;;
68315;SDS011;55508;54.368;18.406;2023-02-18T08:44:12;10.23;;;2.67;;
68315;SDS011;55508;54.368;18.406;2023-02-18T08:46:39;17.08;;;2.15;;
68315;SDS011;55508;54.368;18.406;2023-02-18T08:49:06;11.68;;;3.10;;
68315;SDS011;55508;54.368;18.406;2023-02-18T08:51:33;16.55;;;2.75;;
68315;SDS011;55508;54.368;18.406;2023-02-18T08:54:01;15.20;;;2.80;;
68315;SDS011;55508;54.368;18.406;2023-02-18T08:56:28;16.27;;;3.20;;
68315;SDS011;55508;54.368;18.406;2023-02-18T08:58:55;12.88;;;2.50;;
68315;SDS011;55508;54.368;18.406;2023-02-18T09:01:22;11.32;;;2.65;;
68315;SDS011;55508;54.368;18.406;2023-02-18T09:03:49;15.23;;;3.63;;
68315;SDS011;55508;54.368;18.406;2023-02-18T09:06:16;13.90;;;2.97;;
68315;SDS011;55508;54.368;18.406;2023-02-18T09:08:43;14.35;;;2.20;;
68315;SDS011;55508;54.368;18.406;2023-02-18T09:11:10;10.55;;;2.25;;
68315;SDS011;55508;54.368;18.406;2023-02-18T09:13:37;19.38;;;3.05;;
68315;SDS011;55508;54.368;18.406;2023-02-18T09:16:06;11.82;;;2.75;;
68315;SDS011;55508;54.368;18.406;2023-02-18T09:18:38;17.08;;;2.90;;
68315;SDS011;55508;54.368;18.406;2023-02-18T09:21:06;13.40;;;3.28;;
68315;SDS011;55508;54.368;18.406;2023-02-18T09:23:35;9.05;;;2.58;;
68315;SDS011;55508;54.368;18.406;2023-02-18T09:26:03;8.38;;;3.25;;
68315;SDS011;55508;54.368;18.406;2023-02-18T09:28:31;9.88;;;2.67;;
68315;SDS011;55508;54.368;18.406;2023-02-18T09:31:02;7.95;;;3.15;;
68315;SDS011;55508;54.368;18.406;2023-02-18T09:33:40;17.42;;;3.83;;
68315;SDS011;55508;54.368;18.406;2023-02-18T09:36:11;11.40;;;3.15;;
68315;SDS011;55508;54.368;18.406;2023-02-18T09:38:38;12.82;;;2.90;;
68315;SDS011;55508;54.368;18.406;2023-02-18T09:41:06;19.08;;;4.38;;
68315;SDS011;55508;54.368;18.406;2023-02-18T09:43:58;11.93;;;4.63;;
68315;SDS011;55508;54.368;18.406;2023-02-18T09:46:32;13.90;;;3.75;;
68315;SDS011;55508;54.368;18.406;2023-02-18T09:49:02;20.77;;;5.25;;
68315;SDS011;55508;54.368;18.406;2023-02-18T09:51:30;23.63;;;5.57;;
68315;SDS011;55508;54.368;18.406;2023-02-18T09:53:57;15.60;;;4.72;;
68315;SDS011;55508;54.368;18.406;2023-02-18T09:56:31;17.95;;;3.72;;
68315;SDS011;55508;54.368;18.406;2023-02-18T09:59:02;14.88;;;3.15;;
68315;SDS011;55508;54.368;18.406;2023-02-18T10:01:34;7.53;;;2.40;;
68315;SDS011;55508;54.368;18.406;2023-02-18T10:04:05;19.00;;;3.83;;
68315;SDS011;55508;54.368;18.406;2023-02-18T10:06:38;19.10;;;4.30;;
68315;SDS011;55508;54.368;18.406;2023-02-18T10:09:12;19.08;;;3.60;;
68315;SDS011;55508;54.368;18.406;2023-02-18T10:11:46;11.93;;;3.28;;
68315;SDS011;55508;54.368;18.406;2023-02-18T10:14:16;10.17;;;2.03;;
68315;SDS011;55508;54.368;18.406;2023-02-18T10:16:43;8.10;;;2.60;;
68315;SDS011;55508;54.368;18.406;2023-02-18T10:19:19;12.23;;;4.50;;
68315;SDS011;55508;54.368;18.406;2023-02-18T10:21:49;13.43;;;2.55;;
68315;SDS011;55508;54.368;18.406;2023-02-18T10:27:25;10.88;;;2.85;;
68315;SDS011;55508;54.368;18.406;2023-02-18T10:29:54;9.50;;;1.85;;
68315;SDS011;55508;54.368;18.406;2023-02-18T10:32:23;10.95;;;2.38;;
68315;SDS011;55508;54.368;18.406;2023-02-18T10:35:06;17.63;;;3.28;;
68315;SDS011;55508;54.368;18.406;2023-02-18T10:40:51;9.20;;;2.63;;
68315;SDS011;55508;54.368;18.406;2023-02-18T10:43:34;17.48;;;3.63;;
68315;SDS011;55508;54.368;18.406;2023-02-18T10:46:33;17.75;;;4.43;;
68315;SDS011;55508;54.368;18.406;2023-02-18T10:52:02;14.52;;;3.45;;
68315;SDS011;55508;54.368;18.406;2023-02-18T10:57:31;17.25;;;3.85;;
68315;SDS011;55508;54.368;18.406;2023-02-18T11:00:00;16.30;;;3.30;;
68315;SDS011;55508;54.368;18.406;2023-02-18T11:02:38;12.40;;;2.97;;
68315;SDS011;55508;54.368;18.406;2023-02-18T11:05:15;14.68;;;2.47;;
68315;SDS011;55508;54.368;18.406;2023-02-18T11:07:50;13.15;;;2.22;;
68315;SDS011;55508;54.368;18.406;2023-02-18T11:10:25;15.40;;;2.90;;
68315;SDS011;55508;54.368;18.406;2023-02-18T11:13:00;24.08;;;7.25;;
68315;SDS011;55508;54.368;18.406;2023-02-18T11:15:28;12.95;;;3.80;;
68315;SDS011;55508;54.368;18.406;2023-02-18T11:17:57;11.65;;;2.80;;
68315;SDS011;55508;54.368;18.406;2023-02-18T11:20:38;17.15;;;3.58;;
68315;SDS011;55508;54.368;18.406;2023-02-18T11:23:14;9.73;;;2.63;;
68315;SDS011;55508;54.368;18.406;2023-02-18T11:31:22;23.45;;;4.03;;
68315;SDS011;55508;54.368;18.406;2023-02-18T11:33:54;10.73;;;3.22;;
68315;SDS011;55508;54.368;18.406;2023-02-18T11:36:30;12.55;;;3.05;;
68315;SDS011;55508;54.368;18.406;2023-02-18T11:41:53;7.07;;;3.28;;
68315;SDS011;55508;54.368;18.406;2023-02-18T11:44:26;10.05;;;2.58;;
68315;SDS011;55508;54.368;18.406;2023-02-18T11:47:03;17.27;;;5.05;;
68315;SDS011;55508;54.368;18.406;2023-02-18T11:49:34;26.08;;;8.02;;
68315;SDS011;55508;54.368;18.406;2023-02-18T11:52:08;8.00;;;2.78;;
68315;SDS011;55508;54.368;18.406;2023-02-18T11:55:03;15.07;;;3.03;;
68315;SDS011;55508;54.368;18.406;2023-02-18T12:00:45;21.38;;;4.18;;
68315;SDS011;55508;54.368;18.406;2023-02-18T12:03:14;8.70;;;2.65;;
68315;SDS011;55508;54.368;18.406;2023-02-18T12:06:04;13.52;;;2.80;;
68315;SDS011;55508;54.368;18.406;2023-02-18T12:08:56;11.60;;;2.65;;
68315;SDS011;55508;54.368;18.406;2023-02-18T12:11:28;11.27;;;3.50;;
68315;SDS011;55508;54.368;18.406;2023-02-18T12:13:58;16.52;;;3.50;;
68315;SDS011;55508;54.368;18.406;2023-02-18T12:16:40;13.75;;;4.35;;
68315;SDS011;55508;54.368;18.406;2023-02-18T12:19:44;15.38;;;2.92;;
68315;SDS011;55508;54.368;18.406;2023-02-18T12:25:20;15.95;;;3.78;;
68315;SDS011;55508;54.368;18.406;2023-02-18T12:28:03;15.95;;;3.97;;
68315;SDS011;55508;54.368;18.406;2023-02-18T12:30:49;16.63;;;3.28;;
68315;SDS011;55508;54.368;18.406;2023-02-18T12:42:33;13.05;;;2.78;;
68315;SDS011;55508;54.368;18.406;2023-02-18T12:45:32;12.55;;;3.03;;
68315;SDS011;55508;54.368;18.406;2023-02-18T12:57:20;8.88;;;2.72;;
68315;SDS011;55508;54.368;18.406;2023-02-18T13:15:19;11.13;;;4.03;;
68315;SDS011;55508;54.368;18.406;2023-02-18T13:17:50;9.32;;;2.88;;
68315;SDS011;55508;54.368;18.406;2023-02-18T13:20:23;11.82;;;3.20;;
68315;SDS011;55508;54.368;18.406;2023-02-18T13:22:52;13.18;;;2.67;;
68315;SDS011;55508;54.368;18.406;2023-02-18T13:25:19;11.45;;;2.85;;
68315;SDS011;55508;54.368;18.406;2023-02-18T13:27:53;17.98;;;3.65;;
68315;SDS011;55508;54.368;18.406;2023-02-18T13:30:48;5.35;;;1.90;;
68315;SDS011;55508;54.368;18.406;2023-02-18T13:36:21;12.85;;;3.10;;
68315;SDS011;55508;54.368;18.406;2023-02-18T13:39:03;8.02;;;2.10;;
68315;SDS011;55508;54.368;18.406;2023-02-18T13:41:35;11.27;;;2.80;;
68315;SDS011;55508;54.368;18.406;2023-02-18T13:44:08;13.60;;;2.90;;
68315;SDS011;55508;54.368;18.406;2023-02-18T13:46:56;14.07;;;5.65;;
68315;SDS011;55508;54.368;18.406;2023-02-18T13:49:32;12.40;;;3.83;;
68315;SDS011;55508;54.368;18.406;2023-02-18T13:52:00;22.02;;;6.97;;
68315;SDS011;55508;54.368;18.406;2023-02-18T13:54:43;11.40;;;3.47;;
68315;SDS011;55508;54.368;18.406;2023-02-18T13:57:15;21.13;;;5.13;;
68315;SDS011;55508;54.368;18.406;2023-02-18T13:59:47;17.02;;;3.17;;
68315;SDS011;55508;54.368;18.406;2023-02-18T14:02:29;8.17;;;3.73;;
68315;SDS011;55508;54.368;18.406;2023-02-18T14:05:14;15.68;;;3.35;;
68315;SDS011;55508;54.368;18.406;2023-02-18T14:07:49;11.40;;;3.55;;
68315;SDS011;55508;54.368;18.406;2023-02-18T14:10:26;14.45;;;4.00;;
68315;SDS011;55508;54.368;18.406;2023-02-18T14:13:00;33.50;;;7.78;;
68315;SDS011;55508;54.368;18.406;2023-02-18T14:15:47;21.88;;;5.68;;
68315;SDS011;55508;54.368;18.406;2023-02-18T14:18:24;24.60;;;5.13;;
68315;SDS011;55508;54.368;18.406;2023-02-18T14:21:03;20.42;;;6.35;;
68315;SDS011;55508;54.368;18.406;2023-02-18T14:23:43;27.67;;;5.43;;
68315;SDS011;55508;54.368;18.406;2023-02-18T14:26:28;22.90;;;5.90;;
68315;SDS011;55508;54.368;18.406;2023-02-18T14:28:59;19.80;;;5.13;;
68315;SDS011;55508;54.368;18.406;2023-02-18T14:37:19;11.90;;;3.30;;
68315;SDS011;55508;54.368;18.406;2023-02-18T14:40:03;17.13;;;4.80;;
68315;SDS011;55508;54.368;18.406;2023-02-18T14:42:47;20.52;;;4.35;;
68315;SDS011;55508;54.368;18.406;2023-02-18T14:51:40;16.77;;;4.50;;
68315;SDS011;55508;54.368;18.406;2023-02-18T14:54:12;18.88;;;5.63;;
68315;SDS011;55508;54.368;18.406;2023-02-18T14:56:44;18.90;;;5.28;;
68315;SDS011;55508;54.368;18.406;2023-02-18T14:59:21;22.45;;;5.03;;
68315;SDS011;55508;54.368;18.406;2023-02-18T15:01:52;12.63;;;3.70;;
68315;SDS011;55508;54.368;18.406;2023-02-18T15:04:22;18.17;;;4.53;;
68315;SDS011;55508;54.368;18.406;2023-02-18T15:06:57;19.00;;;4.85;;
68315;SDS011;55508;54.368;18.406;2023-02-18T15:09:25;13.55;;;3.70;;
68315;SDS011;55508;54.368;18.406;2023-02-18T15:11:56;21.27;;;4.97;;
68315;SDS011;55508;54.368;18.406;2023-02-18T15:14:32;12.23;;;3.95;;
68315;SDS011;55508;54.368;18.406;2023-02-18T15:17:01;16.13;;;4.60;;
68315;SDS011;55508;54.368;18.406;2023-02-18T15:19:29;20.80;;;5.63;;
68315;SDS011;55508;54.368;18.406;2023-02-18T15:22:02;22.17;;;5.45;;
68315;SDS011;55508;54.368;18.406;2023-02-18T15:24:30;17.48;;;3.90;;
68315;SDS011;55508;54.368;18.406;2023-02-18T15:27:00;16.70;;;5.43;;
68315;SDS011;55508;54.368;18.406;2023-02-18T15:29:30;17.23;;;3.72;;
68315;SDS011;55508;54.368;18.406;2023-02-18T15:32:11;20.35;;;4.60;;
68315;SDS011;55508;54.368;18.406;2023-02-18T15:34:41;14.75;;;3.65;;
68315;SDS011;55508;54.368;18.406;2023-02-18T15:37:11;22.70;;;5.50;;
68315;SDS011;55508;54.368;18.406;2023-02-18T15:39:39;24.65;;;5.65;;
68315;SDS011;55508;54.368;18.406;2023-02-18T15:44:57;21.70;;;4.95;;
68315;SDS011;55508;54.368;18.406;2023-02-18T15:47:30;23.23;;;5.63;;
68315;SDS011;55508;54.368;18.406;2023-02-18T15:49:58;17.83;;;5.28;;
68315;SDS011;55508;54.368;18.406;2023-02-18T15:52:30;18.67;;;4.90;;
68315;SDS011;55508;54.368;18.406;2023-02-18T15:55:00;10.38;;;3.58;;
68315;SDS011;55508;54.368;18.406;2023-02-18T15:57:29;26.05;;;8.55;;
68315;SDS011;55508;54.368;18.406;2023-02-18T15:59:59;26.80;;;6.95;;
68315;SDS011;55508;54.368;18.406;2023-02-18T16:02:32;20.73;;;4.18;;
68315;SDS011;55508;54.368;18.406;2023-02-18T16:05:00;21.20;;;5.00;;
68315;SDS011;55508;54.368;18.406;2023-02-18T16:07:31;15.52;;;4.72;;
68315;SDS011;55508;54.368;18.406;2023-02-18T16:10:08;19.48;;;5.00;;
68315;SDS011;55508;54.368;18.406;2023-02-18T16:12:46;15.07;;;5.15;;
68315;SDS011;55508;54.368;18.406;2023-02-18T16:15:22;19.27;;;4.50;;
68315;SDS011;55508;54.368;18.406;2023-02-18T16:17:52;20.35;;;5.28;;
68315;SDS011;55508;54.368;18.406;2023-02-18T16:20:28;15.30;;;6.45;;
68315;SDS011;55508;54.368;18.406;2023-02-18T16:22:59;27.70;;;6.32;;
68315;SDS011;55508;54.368;18.406;2023-02-18T16:25:42;14.27;;;4.43;;
68315;SDS011;55508;54.368;18.406;2023-02-18T16:30:58;13.88;;;3.90;;
68315;SDS011;55508;54.368;18.406;2023-02-18T16:33:24;22.40;;;5.55;;
68315;SDS011;55508;54.368;18.406;2023-02-18T16:35:51;17.65;;;4.72;;
68315;SDS011;55508;54.368;18.406;2023-02-18T16:38:19;22.00;;;5.97;;
68315;SDS011;55508;54.368;18.406;2023-02-18T16:40:48;14.98;;;5.28;;
68315;SDS011;55508;54.368;18.406;2023-02-18T16:43:16;18.40;;;5.85;;
68315;SDS011;55508;54.368;18.406;2023-02-18T16:45:46;13.75;;;5.13;;